Prince Madog — ZNLJ5 — position and weather

sailwx.info

Track history (hours):
 
Tides and Currents Weather Stations Pressure Air Temp Water Temp Dewpoint Dewpoint Depression Visibility Wind Speed Wind Dir Waves Ship Positions

Oceanographic research ship Prince Madog (UK)

Detailed information on ship capabilities available from University of Delaware's Ocean Information Center.

Last reported at 2019-Jun-19 21:00 UTC. Time now 2019-Jun-19 21:24 UTC.
Position N 53°40' W 004°02'.

Length 35 m; draft 3.8 m.

Type: Ship. MMSI: 235234000.

Date/timePositionNaut miles runAvg speedWind from/ knotsBaromVisibWave heightAir tempDewpointWater temp
2019-Jun-19 21:00N 53°40' W 004°02'1 2.4
2019-Jun-19 20:30N 53°39' W 004°04'1 1.9
2019-Jun-19 19:57N 53°39' W 004°05'1 1.5
2019-Jun-19 19:31N 53°39' W 004°06'1 1.1
2019-Jun-19 19:01N 53°38' W 004°07'0 0.8
2019-Jun-19 18:30N 53°38' W 004°07'0 0.6
2019-Jun-19 18:00N 53°37' W 004°07'0 0.7
2019-Jun-19 17:30N 53°37' W 004°07'1 1.1
2019-Jun-19 17:00N 53°37' W 004°06'1 1.3
2019-Jun-19 16:30N 53°37' W 004°05'1 1.2
2019-Jun-19 16:00N 53°38' W 004°05'2 4.0
2019-Jun-19 15:30N 53°39' W 004°08'2 4.0
2019-Jun-19 15:00N 53°40' W 004°10'2 4.1
2019-Jun-19 14:30N 53°42' W 004°12'2 4.1
2019-Jun-19 14:00N 53°44' W 004°14'3 5.9
2019-Jun-19 13:30N 53°46' W 004°17'3 4.8
2019-Jun-19 12:52N 53°48' W 004°21'1 0.9
2019-Jun-19 11:43N 53°48' W 004°22'0 1.6
2019-Jun-19 11:25N 53°48' W 004°23'1 1.9
2019-Jun-19 10:59N 53°48' W 004°24'1 2.3
2019-Jun-19 10:25N 53°48' W 004°27'1 2.5
2019-Jun-19 09:57N 53°48' W 004°29'5 1.8
2019-Jun-19 07:21N 53°47' W 004°37'0 0.5
2019-Jun-19 06:40N 53°47' W 004°37'0 0.3
2019-Jun-19 06:07N 53°47' W 004°37'0 0.4
2019-Jun-19 05:48N 53°47' W 004°37'1 0.8
2019-Jun-19 05:09N 53°48' W 004°36'0 1.0
2019-Jun-19 04:58N 53°48' W 004°36'1 1.4
2019-Jun-19 04:14N 53°48' W 004°34'1 1.7
2019-Jun-19 03:36N 53°48' W 004°32'0 1.9
2019-Jun-19 03:29N 53°48' W 004°32'1 1.8
2019-Jun-19 03:00N 53°48' W 004°30'2 1.6
2019-Jun-19 02:00N 53°48' W 004°28'1 1.3
2019-Jun-19 01:30N 53°48' W 004°26'0 0.9
2019-Jun-19 01:00N 53°48' W 004°26'0 0.3
2019-Jun-19 00:27N 53°48' W 004°25'0 0.3
2019-Jun-18 23:51N 53°48' W 004°26'0 1.0
2019-Jun-18 23:30N 53°48' W 004°26'1 1.5
2019-Jun-18 22:54N 53°48' W 004°28'1 2.0
2019-Jun-18 22:30N 53°47' W 004°29'1 2.4
2019-Jun-18 22:00N 53°47' W 004°31'1 2.6
2019-Jun-18 21:29N 53°46' W 004°33'1 2.5
2019-Jun-18 20:57N 53°46' W 004°35'1 2.3
2019-Jun-18 20:30N 53°45' W 004°36'1 1.9
2019-Jun-18 19:59N 53°45' W 004°38'1 1.5
2019-Jun-18 19:28N 53°44' W 004°39'1 0.9
2019-Jun-18 18:36N 53°44' W 004°40'0 0.3
2019-Jun-18 18:28N 53°44' W 004°40'0 0.3
2019-Jun-18 18:00N 53°44' W 004°40'1 0.7
2019-Jun-18 17:05N 53°44' W 004°39'0 1.1
2019-Jun-18 16:56N 53°44' W 004°38'1 1.3
2019-Jun-18 16:29N 53°44' W 004°37'2 1.5
2019-Jun-18 15:18N 53°45' W 004°35'0 1.6
2019-Jun-18 15:00N 53°45' W 004°34'1 1.5
2019-Jun-18 14:30N 53°45' W 004°33'0 0.7
2019-Jun-18 13:55N 53°45' W 004°33'1 1.0
2019-Jun-18 13:17N 53°45' W 004°32'0 0.5
2019-Jun-18 12:43N 53°45' W 004°32'17 8.1
2019-Jun-18 10:39N 53°31' W 004°16'14 7.1
2019-Jun-18 08:36N 53°19' W 004°03'1 6.9
2019-Jun-18 08:31N 53°19' W 004°02'3 6.3
2019-Jun-18 08:00N 53°16' W 004°05'  
2019-Jun-15 13:34N 53°14' W 004°09'0 8.2
2019-Jun-15 13:30N 53°14' W 004°08'3 6.2
2019-Jun-15 13:00N 53°16' W 004°05'3 5.8
2019-Jun-15 12:30N 53°19' W 004°03'2 4.7
2019-Jun-15 12:00N 53°21' W 004°03'0 0.2
2019-Jun-15 11:30N 53°21' W 004°03'1 1.2
2019-Jun-15 11:00N 53°22' W 004°04'2 3.9
2019-Jun-15 10:21N 53°23' W 004°08'3 1.3
2019-Jun-15 08:24N 53°24' W 004°12'6 0.9
2019-Jun-15 02:03N 53°27' W 004°20'0 0.5
2019-Jun-15 01:55N 53°27' W 004°20'2 2.4
2019-Jun-15 01:05N 53°27' W 004°17'0 3.4
2019-Jun-15 01:00N 53°27' W 004°17'56 4.4
2019-Jun-14 12:15N 52°47' W 005°24'57 2.7
2019-Jun-13 14:41N 51°50' W 005°19'2 5.1
2019-Jun-13 14:22N 51°50' W 005°16'2 6.6
2019-Jun-13 14:00N 51°50' W 005°13'2 4.6
2019-Jun-13 13:29N 51°50' W 005°16'2 3.2
2019-Jun-13 12:52N 51°48' W 005°14'1 2.3
2019-Jun-13 12:30N 51°48' W 005°13'2 3.8
2019-Jun-13 11:57N 51°48' W 005°16'3 6.1
2019-Jun-13 11:30N 51°48' W 005°12'3 5.9
2019-Jun-13 11:00N 51°48' W 005°17'2 3.9
2019-Jun-13 10:30N 51°48' W 005°13'1 1.6
2019-Jun-13 10:00N 51°48' W 005°15'0 0.6
2019-Jun-13 09:29N 51°49' W 005°15'2 3.2
2019-Jun-13 09:00N 51°49' W 005°13'3 5.2
2019-Jun-13 08:29N 51°49' W 005°17'3 6.4
2019-Jun-13 08:00N 51°49' W 005°12'3 4.9
2019-Jun-13 07:29N 51°49' W 005°16'1 3.0
2019-Jun-13 07:00N 51°49' W 005°14'0 0.6
2019-Jun-13 06:30N 51°49' W 005°14'0 0.2
2019-Jun-13 05:55N 51°49' W 005°15'1 2.5
2019-Jun-13 05:30N 51°49' W 005°13'2 3.3
2019-Jun-13 04:55N 51°49' W 005°16'3 5.8
2019-Jun-13 04:29N 51°49' W 005°12'3 6.0
2019-Jun-13 03:58N 51°49' W 005°17'2 5.0
2019-Jun-13 03:29N 51°49' W 005°13'1 2.8
2019-Jun-13 02:59N 51°49' W 005°15'1 1.1
2019-Jun-13 02:30N 51°49' W 005°15'0 0.3
2019-Jun-13 02:00N 51°49' W 005°14'1 1.5
2019-Jun-13 01:30N 51°49' W 005°16'1 2.4
2019-Jun-13 00:59N 51°49' W 005°14'2 3.2
2019-Jun-13 00:28N 51°49' W 005°16'3 5.5
2019-Jun-13 00:00N 51°49' W 005°12'3 6.5
2019-Jun-12 23:30N 51°49' W 005°17'3 5.9
2019-Jun-12 22:59N 51°49' W 005°12'2 4.9
2019-Jun-12 22:30N 51°49' W 005°16'1 2.2
2019-Jun-12 22:00N 51°49' W 005°14'0 0.2
2019-Jun-12 21:30N 51°49' W 005°14'0 0.5
2019-Jun-12 20:54N 51°49' W 005°15'1 3.8
2019-Jun-12 20:30N 51°49' W 005°12'3 5.7
2019-Jun-12 19:59N 51°49' W 005°17'3 6.1
2019-Jun-12 19:30N 51°49' W 005°13'2 4.0
2019-Jun-12 18:59N 51°49' W 005°16'1 2.1
2019-Jun-12 18:30N 51°50' W 005°14'0 0.2
2019-Jun-12 18:00N 51°50' W 005°14'0 0.3
2019-Jun-12 17:24N 51°50' W 005°15'1 2.8
2019-Jun-12 17:00N 51°50' W 005°13'2 4.2
2019-Jun-12 16:30N 51°50' W 005°16'1 1.4
2019-Jun-12 16:00N 51°50' W 005°15'2 4.0
2019-Jun-12 15:30N 51°50' W 005°12'2 3.9
2019-Jun-12 14:59N 51°50' W 005°15'1 1.6
2019-Jun-12 14:24N 51°50' W 005°16'1 1.1
2019-Jun-12 13:52N 51°50' W 005°17'2 4.2
2019-Jun-12 13:27N 51°50' W 005°20'3 5.9
2019-Jun-12 13:00N 51°49' W 005°24'2 0.5
2019-Jun-12 07:33N 51°50' W 005°20'1 7.1
2019-Jun-12 07:23N 51°50' W 005°18'3 6.2
2019-Jun-12 06:55N 51°51' W 005°14'1 2.4
2019-Jun-12 06:29N 51°51' W 005°12'0 0.3
2019-Jun-12 05:56N 51°51' W 005°12'1 2.0
2019-Jun-12 05:26N 51°51' W 005°13'1 2.0
2019-Jun-12 04:43N 51°51' W 005°16'0 0.2
2019-Jun-12 04:23N 51°51' W 005°16'1 2.4
2019-Jun-12 04:00N 51°51' W 005°14'1 2.3
2019-Jun-12 03:30N 51°51' W 005°12'0 0.4
2019-Jun-12 03:00N 51°51' W 005°12'2 1.9
2019-Jun-12 02:00N 51°51' W 005°15'0 0.6
2019-Jun-12 01:29N 51°51' W 005°16'1 1.9
2019-Jun-12 00:59N 51°51' W 005°14'1 1.8
2019-Jun-12 00:29N 51°51' W 005°13'1 1.7
2019-Jun-11 23:59N 51°51' W 005°11'0 0.4
2019-Jun-11 23:27N 51°51' W 005°11'1 1.4
2019-Jun-11 22:58N 51°51' W 005°12'1 1.7
2019-Jun-11 22:25N 51°51' W 005°14'1 1.6
2019-Jun-11 21:51N 51°51' W 005°15'1 1.7
2019-Jun-11 21:29N 51°51' W 005°16'1 1.5
2019-Jun-11 20:56N 51°51' W 005°15'1 2.0
2019-Jun-11 20:28N 51°51' W 005°13'1 2.0
2019-Jun-11 20:00N 51°51' W 005°12'1 1.4
2019-Jun-11 19:28N 51°51' W 005°13'1 1.6
2019-Jun-11 18:59N 51°51' W 005°14'1 1.6
2019-Jun-11 18:17N 51°51' W 005°16'1 1.0
2019-Jun-11 17:15N 51°51' W 005°14'1 1.8
2019-Jun-11 16:51N 51°51' W 005°13'1 2.4
2019-Jun-11 16:30N 51°51' W 005°12'1 1.1
2019-Jun-11 15:59N 51°51' W 005°13'2 1.8
2019-Jun-11 14:57N 51°51' W 005°16'1 1.1
2019-Jun-11 13:32N 51°51' W 005°13'0 1.5
2019-Jun-11 13:19N 51°51' W 005°13'1 1.6
2019-Jun-11 12:56N 51°51' W 005°12'0 0.2
2019-Jun-11 12:25N 51°51' W 005°12'1 2.2
2019-Jun-11 12:00N 51°51' W 005°13'2 2.0
2019-Jun-11 11:12N 51°51' W 005°16'0 1.9
2019-Jun-11 10:59N 51°51' W 005°16'7 7.9
2019-Jun-11 10:05N 51°48' W 005°26'1 7.2
2019-Jun-11 10:00N 51°47' W 005°27'25 2.8
2019-Jun-11 01:04N 51°55' W 006°06'4 5.2
2019-Jun-11 00:23N 51°54' W 006°11'2 2.9
2019-Jun-10 23:38N 51°53' W 006°14'45 2.3
2019-Jun-10 03:56N 52°36' W 005°49'7 4.1
2019-Jun-10 02:18N 52°38' W 005°39'0 0.4
2019-Jun-10 01:57N 52°38' W 005°39'4 3.7
2019-Jun-10 00:48N 52°39' W 005°46'0 0.4
2019-Jun-10 00:30N 52°39' W 005°46'2 3.1
2019-Jun-09 23:46N 52°41' W 005°44'0 0.5
2019-Jun-09 23:23N 52°41' W 005°44'0 1.1
2019-Jun-09 23:00N 52°41' W 005°43'3 5.7
2019-Jun-09 22:25N 52°44' W 005°40'3 7.5
2019-Jun-09 22:00N 52°46' W 005°36'4 7.7
2019-Jun-09 21:25N 52°49' W 005°31'4 8.3
2019-Jun-09 20:59N 52°51' W 005°26'5 8.7
2019-Jun-09 20:23N 52°55' W 005°20'  
Track history (hours):
 
Tides and Currents Weather Stations Pressure Air Temp Water Temp Dewpoint Dewpoint Depression Visibility Wind Speed Wind Dir Waves Ship Positions

Oceanographic research ship Prince Madog (UK)

Detailed information on ship capabilities available from University of Delaware's Ocean Information Center.

Last reported at 2019-Jun-19 21:00 UTC. Time now 2019-Jun-19 21:24 UTC.
Position N 53°40' W 004°02'.

Length 35 m; draft 3.8 m.

Type: Ship. MMSI: 235234000.

Date/timePositionNaut miles runAvg speedWind from/ knotsBaromVisibWave heightAir tempDewpointWater temp
2019-Jun-19 21:00N 53°40' W 004°02'1 2.4
2019-Jun-19 20:30N 53°39' W 004°04'1 1.9
2019-Jun-19 19:57N 53°39' W 004°05'1 1.5
2019-Jun-19 19:31N 53°39' W 004°06'1 1.1
2019-Jun-19 19:01N 53°38' W 004°07'0 0.8
2019-Jun-19 18:30N 53°38' W 004°07'0 0.6
2019-Jun-19 18:00N 53°37' W 004°07'0 0.7
2019-Jun-19 17:30N 53°37' W 004°07'1 1.1
2019-Jun-19 17:00N 53°37' W 004°06'1 1.3
2019-Jun-19 16:30N 53°37' W 004°05'1 1.2
2019-Jun-19 16:00N 53°38' W 004°05'2 4.0
2019-Jun-19 15:30N 53°39' W 004°08'2 4.0
2019-Jun-19 15:00N 53°40' W 004°10'2 4.1
2019-Jun-19 14:30N 53°42' W 004°12'2 4.1
2019-Jun-19 14:00N 53°44' W 004°14'3 5.9
2019-Jun-19 13:30N 53°46' W 004°17'3 4.8
2019-Jun-19 12:52N 53°48' W 004°21'1 0.9
2019-Jun-19 11:43N 53°48' W 004°22'0 1.6
2019-Jun-19 11:25N 53°48' W 004°23'1 1.9
2019-Jun-19 10:59N 53°48' W 004°24'1 2.3
2019-Jun-19 10:25N 53°48' W 004°27'1 2.5
2019-Jun-19 09:57N 53°48' W 004°29'5 1.8
2019-Jun-19 07:21N 53°47' W 004°37'0 0.5
2019-Jun-19 06:40N 53°47' W 004°37'0 0.3
2019-Jun-19 06:07N 53°47' W 004°37'0 0.4
2019-Jun-19 05:48N 53°47' W 004°37'1 0.8
2019-Jun-19 05:09N 53°48' W 004°36'0 1.0
2019-Jun-19 04:58N 53°48' W 004°36'1 1.4
2019-Jun-19 04:14N 53°48' W 004°34'1 1.7
2019-Jun-19 03:36N 53°48' W 004°32'0 1.9
2019-Jun-19 03:29N 53°48' W 004°32'1 1.8
2019-Jun-19 03:00N 53°48' W 004°30'2 1.6
2019-Jun-19 02:00N 53°48' W 004°28'1 1.3
2019-Jun-19 01:30N 53°48' W 004°26'0 0.9
2019-Jun-19 01:00N 53°48' W 004°26'0 0.3
2019-Jun-19 00:27N 53°48' W 004°25'0 0.3
2019-Jun-18 23:51N 53°48' W 004°26'0 1.0
2019-Jun-18 23:30N 53°48' W 004°26'1 1.5
2019-Jun-18 22:54N 53°48' W 004°28'1 2.0
2019-Jun-18 22:30N 53°47' W 004°29'1 2.4
2019-Jun-18 22:00N 53°47' W 004°31'1 2.6
2019-Jun-18 21:29N 53°46' W 004°33'1 2.5
2019-Jun-18 20:57N 53°46' W 004°35'1 2.3
2019-Jun-18 20:30N 53°45' W 004°36'1 1.9
2019-Jun-18 19:59N 53°45' W 004°38'1 1.5
2019-Jun-18 19:28N 53°44' W 004°39'1 0.9
2019-Jun-18 18:36N 53°44' W 004°40'0 0.3
2019-Jun-18 18:28N 53°44' W 004°40'0 0.3
2019-Jun-18 18:00N 53°44' W 004°40'1 0.7
2019-Jun-18 17:05N 53°44' W 004°39'0 1.1
2019-Jun-18 16:56N 53°44' W 004°38'1 1.3
2019-Jun-18 16:29N 53°44' W 004°37'2 1.5
2019-Jun-18 15:18N 53°45' W 004°35'0 1.6
2019-Jun-18 15:00N 53°45' W 004°34'1 1.5
2019-Jun-18 14:30N 53°45' W 004°33'0 0.7
2019-Jun-18 13:55N 53°45' W 004°33'1 1.0
2019-Jun-18 13:17N 53°45' W 004°32'0 0.5
2019-Jun-18 12:43N 53°45' W 004°32'17 8.1
2019-Jun-18 10:39N 53°31' W 004°16'14 7.1
2019-Jun-18 08:36N 53°19' W 004°03'1 6.9
2019-Jun-18 08:31N 53°19' W 004°02'3 6.3
2019-Jun-18 08:00N 53°16' W 004°05'  
2019-Jun-15 13:34N 53°14' W 004°09'0 8.2
2019-Jun-15 13:30N 53°14' W 004°08'3 6.2
2019-Jun-15 13:00N 53°16' W 004°05'3 5.8
2019-Jun-15 12:30N 53°19' W 004°03'2 4.7
2019-Jun-15 12:00N 53°21' W 004°03'0 0.2
2019-Jun-15 11:30N 53°21' W 004°03'1 1.2
2019-Jun-15 11:00N 53°22' W 004°04'2 3.9
2019-Jun-15 10:21N 53°23' W 004°08'3 1.3
2019-Jun-15 08:24N 53°24' W 004°12'6 0.9
2019-Jun-15 02:03N 53°27' W 004°20'0 0.5
2019-Jun-15 01:55N 53°27' W 004°20'2 2.4
2019-Jun-15 01:05N 53°27' W 004°17'0 3.4
2019-Jun-15 01:00N 53°27' W 004°17'56 4.4
2019-Jun-14 12:15N 52°47' W 005°24'57 2.7
2019-Jun-13 14:41N 51°50' W 005°19'2 5.1
2019-Jun-13 14:22N 51°50' W 005°16'2 6.6
2019-Jun-13 14:00N 51°50' W 005°13'2 4.6
2019-Jun-13 13:29N 51°50' W 005°16'2 3.2
2019-Jun-13 12:52N 51°48' W 005°14'1 2.3
2019-Jun-13 12:30N 51°48' W 005°13'2 3.8
2019-Jun-13 11:57N 51°48' W 005°16'3 6.1
2019-Jun-13 11:30N 51°48' W 005°12'3 5.9
2019-Jun-13 11:00N 51°48' W 005°17'2 3.9
2019-Jun-13 10:30N 51°48' W 005°13'1 1.6
2019-Jun-13 10:00N 51°48' W 005°15'0 0.6
2019-Jun-13 09:29N 51°49' W 005°15'2 3.2
2019-Jun-13 09:00N 51°49' W 005°13'3 5.2
2019-Jun-13 08:29N 51°49' W 005°17'3 6.4
2019-Jun-13 08:00N 51°49' W 005°12'3 4.9
2019-Jun-13 07:29N 51°49' W 005°16'1 3.0
2019-Jun-13 07:00N 51°49' W 005°14'0 0.6
2019-Jun-13 06:30N 51°49' W 005°14'0 0.2
2019-Jun-13 05:55N 51°49' W 005°15'1 2.5
2019-Jun-13 05:30N 51°49' W 005°13'2 3.3
2019-Jun-13 04:55N 51°49' W 005°16'3 5.8
2019-Jun-13 04:29N 51°49' W 005°12'3 6.0
2019-Jun-13 03:58N 51°49' W 005°17'2 5.0
2019-Jun-13 03:29N 51°49' W 005°13'1 2.8
2019-Jun-13 02:59N 51°49' W 005°15'1 1.1
2019-Jun-13 02:30N 51°49' W 005°15'0 0.3
2019-Jun-13 02:00N 51°49' W 005°14'1 1.5
2019-Jun-13 01:30N 51°49' W 005°16'1 2.4
2019-Jun-13 00:59N 51°49' W 005°14'2 3.2
2019-Jun-13 00:28N 51°49' W 005°16'3 5.5
2019-Jun-13 00:00N 51°49' W 005°12'3 6.5
2019-Jun-12 23:30N 51°49' W 005°17'3 5.9
2019-Jun-12 22:59N 51°49' W 005°12'2 4.9
2019-Jun-12 22:30N 51°49' W 005°16'1 2.2
2019-Jun-12 22:00N 51°49' W 005°14'0 0.2
2019-Jun-12 21:30N 51°49' W 005°14'0 0.5
2019-Jun-12 20:54N 51°49' W 005°15'1 3.8
2019-Jun-12 20:30N 51°49' W 005°12'3 5.7
2019-Jun-12 19:59N 51°49' W 005°17'3 6.1
2019-Jun-12 19:30N 51°49' W 005°13'2 4.0
2019-Jun-12 18:59N 51°49' W 005°16'1 2.1
2019-Jun-12 18:30N 51°50' W 005°14'0 0.2
2019-Jun-12 18:00N 51°50' W 005°14'0 0.3
2019-Jun-12 17:24N 51°50' W 005°15'1 2.8
2019-Jun-12 17:00N 51°50' W 005°13'2 4.2
2019-Jun-12 16:30N 51°50' W 005°16'1 1.4
2019-Jun-12 16:00N 51°50' W 005°15'2 4.0
2019-Jun-12 15:30N 51°50' W 005°12'2 3.9
2019-Jun-12 14:59N 51°50' W 005°15'1 1.6
2019-Jun-12 14:24N 51°50' W 005°16'1 1.1
2019-Jun-12 13:52N 51°50' W 005°17'2 4.2
2019-Jun-12 13:27N 51°50' W 005°20'3 5.9
2019-Jun-12 13:00N 51°49' W 005°24'2 0.5
2019-Jun-12 07:33N 51°50' W 005°20'1 7.1
2019-Jun-12 07:23N 51°50' W 005°18'3 6.2
2019-Jun-12 06:55N 51°51' W 005°14'1 2.4
2019-Jun-12 06:29N 51°51' W 005°12'0 0.3
2019-Jun-12 05:56N 51°51' W 005°12'1 2.0
2019-Jun-12 05:26N 51°51' W 005°13'1 2.0
2019-Jun-12 04:43N 51°51' W 005°16'0 0.2
2019-Jun-12 04:23N 51°51' W 005°16'1 2.4
2019-Jun-12 04:00N 51°51' W 005°14'1 2.3
2019-Jun-12 03:30N 51°51' W 005°12'0 0.4
2019-Jun-12 03:00N 51°51' W 005°12'2 1.9
2019-Jun-12 02:00N 51°51' W 005°15'0 0.6
2019-Jun-12 01:29N 51°51' W 005°16'1 1.9
2019-Jun-12 00:59N 51°51' W 005°14'1 1.8
2019-Jun-12 00:29N 51°51' W 005°13'1 1.7
2019-Jun-11 23:59N 51°51' W 005°11'0 0.4
2019-Jun-11 23:27N 51°51' W 005°11'1 1.4
2019-Jun-11 22:58N 51°51' W 005°12'1 1.7
2019-Jun-11 22:25N 51°51' W 005°14'1 1.6
2019-Jun-11 21:51N 51°51' W 005°15'1 1.7
2019-Jun-11 21:29N 51°51' W 005°16'1 1.5
2019-Jun-11 20:56N 51°51' W 005°15'1 2.0
2019-Jun-11 20:28N 51°51' W 005°13'1 2.0
2019-Jun-11 20:00N 51°51' W 005°12'1 1.4
2019-Jun-11 19:28N 51°51' W 005°13'1 1.6
2019-Jun-11 18:59N 51°51' W 005°14'1 1.6
2019-Jun-11 18:17N 51°51' W 005°16'1 1.0
2019-Jun-11 17:15N 51°51' W 005°14'1 1.8
2019-Jun-11 16:51N 51°51' W 005°13'1 2.4
2019-Jun-11 16:30N 51°51' W 005°12'1 1.1
2019-Jun-11 15:59N 51°51' W 005°13'2 1.8
2019-Jun-11 14:57N 51°51' W 005°16'1 1.1
2019-Jun-11 13:32N 51°51' W 005°13'0 1.5
2019-Jun-11 13:19N 51°51' W 005°13'1 1.6
2019-Jun-11 12:56N 51°51' W 005°12'0 0.2
2019-Jun-11 12:25N 51°51' W 005°12'1 2.2
2019-Jun-11 12:00N 51°51' W 005°13'2 2.0
2019-Jun-11 11:12N 51°51' W 005°16'0 1.9
2019-Jun-11 10:59N 51°51' W 005°16'7 7.9
2019-Jun-11 10:05N 51°48' W 005°26'1 7.2
2019-Jun-11 10:00N 51°47' W 005°27'25 2.8
2019-Jun-11 01:04N 51°55' W 006°06'4 5.2
2019-Jun-11 00:23N 51°54' W 006°11'2 2.9
2019-Jun-10 23:38N 51°53' W 006°14'45 2.3
2019-Jun-10 03:56N 52°36' W 005°49'7 4.1
2019-Jun-10 02:18N 52°38' W 005°39'0 0.4
2019-Jun-10 01:57N 52°38' W 005°39'4 3.7
2019-Jun-10 00:48N 52°39' W 005°46'0 0.4
2019-Jun-10 00:30N 52°39' W 005°46'2 3.1
2019-Jun-09 23:46N 52°41' W 005°44'0 0.5
2019-Jun-09 23:23N 52°41' W 005°44'0 1.1
2019-Jun-09 23:00N 52°41' W 005°43'3 5.7
2019-Jun-09 22:25N 52°44' W 005°40'3 7.5
2019-Jun-09 22:00N 52°46' W 005°36'4 7.7
2019-Jun-09 21:25N 52°49' W 005°31'4 8.3
2019-Jun-09 20:59N 52°51' W 005°26'5 8.7
2019-Jun-09 20:23N 52°55' W 005°20'  

Dump ship's entire track history